sensor_id;sensor_type;location;lat;lon;timestamp;P1;durP1;ratioP1;P2;durP2;ratioP2
6007;SDS011;3032;49.484;11.112;2022-10-13T00:01:47;78.33;;;36.53;;
6007;SDS011;3032;49.484;11.112;2022-10-13T00:04:12;77.27;;;37.03;;
6007;SDS011;3032;49.484;11.112;2022-10-13T00:06:38;84.57;;;38.80;;
6007;SDS011;3032;49.484;11.112;2022-10-13T00:09:03;90.70;;;40.73;;
6007;SDS011;3032;49.484;11.112;2022-10-13T00:11:29;62.60;;;34.17;;
6007;SDS011;3032;49.484;11.112;2022-10-13T00:13:56;83.60;;;38.83;;
6007;SDS011;3032;49.484;11.112;2022-10-13T00:16:24;71.55;;;35.92;;
6007;SDS011;3032;49.484;11.112;2022-10-13T00:18:50;88.93;;;40.22;;
6007;SDS011;3032;49.484;11.112;2022-10-13T00:21:17;82.07;;;37.43;;
6007;SDS011;3032;49.484;11.112;2022-10-13T00:23:45;62.55;;;30.80;;
6007;SDS011;3032;49.484;11.112;2022-10-13T00:26:11;105.50;;;41.23;;
6007;SDS011;3032;49.484;11.112;2022-10-13T00:28:38;87.53;;;37.65;;
6007;SDS011;3032;49.484;11.112;2022-10-13T00:34:02;73.68;;;37.03;;
6007;SDS011;3032;49.484;11.112;2022-10-13T00:36:28;98.90;;;42.77;;
6007;SDS011;3032;49.484;11.112;2022-10-13T00:38:55;89.28;;;38.88;;
6007;SDS011;3032;49.484;11.112;2022-10-13T00:41:21;51.45;;;29.85;;
6007;SDS011;3032;49.484;11.112;2022-10-13T00:46:15;75.68;;;36.10;;
6007;SDS011;3032;49.484;11.112;2022-10-13T00:48:41;93.30;;;40.27;;
6007;SDS011;3032;49.484;11.112;2022-10-13T00:51:09;105.38;;;41.28;;
6007;SDS011;3032;49.484;11.112;2022-10-13T00:53:37;75.38;;;38.05;;
6007;SDS011;3032;49.484;11.112;2022-10-13T00:56:07;78.78;;;38.53;;
6007;SDS011;3032;49.484;11.112;2022-10-13T00:58:35;94.70;;;38.88;;
6007;SDS011;3032;49.484;11.112;2022-10-13T01:01:03;92.80;;;39.03;;
6007;SDS011;3032;49.484;11.112;2022-10-13T01:03:29;77.60;;;36.78;;
6007;SDS011;3032;49.484;11.112;2022-10-13T01:05:58;98.60;;;39.90;;
6007;SDS011;3032;49.484;11.112;2022-10-13T01:08:27;81.20;;;38.40;;
6007;SDS011;3032;49.484;11.112;2022-10-13T01:13:23;68.03;;;34.83;;
6007;SDS011;3032;49.484;11.112;2022-10-13T01:18:54;84.05;;;38.67;;
6007;SDS011;3032;49.484;11.112;2022-10-13T01:21:34;73.88;;;37.28;;
6007;SDS011;3032;49.484;11.112;2022-10-13T01:27:14;89.43;;;39.38;;
6007;SDS011;3032;49.484;11.112;2022-10-13T01:29:49;84.18;;;38.38;;
6007;SDS011;3032;49.484;11.112;2022-10-13T01:41:12;67.18;;;34.65;;
6007;SDS011;3032;49.484;11.112;2022-10-13T01:43:30;64.85;;;34.15;;
6007;SDS011;3032;49.484;11.112;2022-10-13T01:46:08;59.20;;;31.13;;
6007;SDS011;3032;49.484;11.112;2022-10-13T01:48:39;65.60;;;31.42;;
6007;SDS011;3032;49.484;11.112;2022-10-13T01:51:08;74.40;;;34.08;;
6007;SDS011;3032;49.484;11.112;2022-10-13T01:53:38;66.28;;;33.65;;
6007;SDS011;3032;49.484;11.112;2022-10-13T01:56:05;66.38;;;32.83;;
6007;SDS011;3032;49.484;11.112;2022-10-13T01:58:32;82.80;;;35.60;;
6007;SDS011;3032;49.484;11.112;2022-10-13T02:01:14;59.17;;;30.00;;
6007;SDS011;3032;49.484;11.112;2022-10-13T02:04:04;69.60;;;33.90;;
6007;SDS011;3032;49.484;11.112;2022-10-13T02:11:51;75.22;;;36.75;;
6007;SDS011;3032;49.484;11.112;2022-10-13T02:14:26;77.55;;;35.08;;
6007;SDS011;3032;49.484;11.112;2022-10-13T02:16:54;58.92;;;30.67;;
6007;SDS011;3032;49.484;11.112;2022-10-13T02:19:21;81.30;;;35.50;;
6007;SDS011;3032;49.484;11.112;2022-10-13T02:21:47;71.55;;;33.97;;
6007;SDS011;3032;49.484;11.112;2022-10-13T02:24:13;82.30;;;35.50;;
6007;SDS011;3032;49.484;11.112;2022-10-13T02:26:40;90.03;;;37.65;;
6007;SDS011;3032;49.484;11.112;2022-10-13T02:29:07;76.88;;;35.90;;
6007;SDS011;3032;49.484;11.112;2022-10-13T02:31:40;60.42;;;31.50;;
6007;SDS011;3032;49.484;11.112;2022-10-13T02:34:06;95.80;;;38.85;;
6007;SDS011;3032;49.484;11.112;2022-10-13T02:36:32;84.43;;;37.35;;
6007;SDS011;3032;49.484;11.112;2022-10-13T02:38:58;98.72;;;39.55;;
6007;SDS011;3032;49.484;11.112;2022-10-13T02:41:24;59.13;;;31.10;;
6007;SDS011;3032;49.484;11.112;2022-10-13T02:43:50;54.53;;;30.73;;
6007;SDS011;3032;49.484;11.112;2022-10-13T02:46:15;92.97;;;37.87;;
6007;SDS011;3032;49.484;11.112;2022-10-13T02:48:41;87.80;;;35.93;;
6007;SDS011;3032;49.484;11.112;2022-10-13T02:51:06;81.30;;;34.30;;
6007;SDS011;3032;49.484;11.112;2022-10-13T02:53:32;70.37;;;36.20;;
6007;SDS011;3032;49.484;11.112;2022-10-13T02:55:58;76.60;;;35.13;;
6007;SDS011;3032;49.484;11.112;2022-10-13T02:58:23;66.57;;;33.77;;
6007;SDS011;3032;49.484;11.112;2022-10-13T03:00:49;68.80;;;35.83;;
6007;SDS011;3032;49.484;11.112;2022-10-13T03:03:14;74.40;;;33.47;;
6007;SDS011;3032;49.484;11.112;2022-10-13T03:05:40;68.40;;;33.47;;
6007;SDS011;3032;49.484;11.112;2022-10-13T03:08:05;67.27;;;32.20;;
6007;SDS011;3032;49.484;11.112;2022-10-13T03:10:31;71.67;;;35.67;;
6007;SDS011;3032;49.484;11.112;2022-10-13T03:12:57;60.83;;;31.47;;
6007;SDS011;3032;49.484;11.112;2022-10-13T03:15:23;69.07;;;33.43;;
6007;SDS011;3032;49.484;11.112;2022-10-13T03:17:48;62.97;;;32.60;;
6007;SDS011;3032;49.484;11.112;2022-10-13T03:20:14;80.27;;;34.70;;
6007;SDS011;3032;49.484;11.112;2022-10-13T03:22:40;70.30;;;32.83;;
6007;SDS011;3032;49.484;11.112;2022-10-13T03:25:06;67.20;;;34.07;;
6007;SDS011;3032;49.484;11.112;2022-10-13T03:27:32;75.68;;;34.05;;
6007;SDS011;3032;49.484;11.112;2022-10-13T03:29:58;63.47;;;31.60;;
6007;SDS011;3032;49.484;11.112;2022-10-13T03:32:23;70.43;;;33.70;;
6007;SDS011;3032;49.484;11.112;2022-10-13T03:34:49;69.43;;;33.87;;
6007;SDS011;3032;49.484;11.112;2022-10-13T03:37:15;69.03;;;33.65;;
6007;SDS011;3032;49.484;11.112;2022-10-13T03:39:41;75.07;;;34.40;;
6007;SDS011;3032;49.484;11.112;2022-10-13T03:42:06;70.03;;;32.00;;
6007;SDS011;3032;49.484;11.112;2022-10-13T03:44:32;62.85;;;31.83;;
6007;SDS011;3032;49.484;11.112;2022-10-13T03:46:58;68.73;;;31.63;;
6007;SDS011;3032;49.484;11.112;2022-10-13T03:49:24;67.50;;;33.67;;
6007;SDS011;3032;49.484;11.112;2022-10-13T03:51:49;64.97;;;30.23;;
6007;SDS011;3032;49.484;11.112;2022-10-13T03:54:15;64.87;;;31.17;;
6007;SDS011;3032;49.484;11.112;2022-10-13T03:56:41;65.50;;;31.63;;
6007;SDS011;3032;49.484;11.112;2022-10-13T03:59:07;62.95;;;32.08;;
6007;SDS011;3032;49.484;11.112;2022-10-13T04:01:35;67.70;;;32.72;;
6007;SDS011;3032;49.484;11.112;2022-10-13T04:04:00;62.60;;;30.80;;
6007;SDS011;3032;49.484;11.112;2022-10-13T04:06:26;61.73;;;31.17;;
6007;SDS011;3032;49.484;11.112;2022-10-13T04:08:53;75.97;;;34.78;;
6007;SDS011;3032;49.484;11.112;2022-10-13T04:11:19;74.00;;;35.22;;
6007;SDS011;3032;49.484;11.112;2022-10-13T04:13:45;70.68;;;32.65;;
6007;SDS011;3032;49.484;11.112;2022-10-13T04:16:15;73.20;;;33.80;;
6007;SDS011;3032;49.484;11.112;2022-10-13T04:18:43;63.63;;;33.83;;
6007;SDS011;3032;49.484;11.112;2022-10-13T04:21:10;63.30;;;31.15;;
6007;SDS011;3032;49.484;11.112;2022-10-13T04:23:37;66.53;;;32.60;;
6007;SDS011;3032;49.484;11.112;2022-10-13T04:26:03;65.07;;;31.80;;
6007;SDS011;3032;49.484;11.112;2022-10-13T04:28:30;59.28;;;29.90;;
6007;SDS011;3032;49.484;11.112;2022-10-13T04:30:59;70.47;;;33.00;;
6007;SDS011;3032;49.484;11.112;2022-10-13T04:33:26;61.08;;;31.98;;
6007;SDS011;3032;49.484;11.112;2022-10-13T04:35:51;61.67;;;32.47;;
6007;SDS011;3032;49.484;11.112;2022-10-13T04:38:17;69.60;;;34.30;;
6007;SDS011;3032;49.484;11.112;2022-10-13T04:40:42;64.20;;;32.70;;
6007;SDS011;3032;49.484;11.112;2022-10-13T04:43:08;68.80;;;34.67;;
6007;SDS011;3032;49.484;11.112;2022-10-13T04:45:33;62.23;;;32.20;;
6007;SDS011;3032;49.484;11.112;2022-10-13T04:47:59;62.77;;;33.10;;
6007;SDS011;3032;49.484;11.112;2022-10-13T04:50:25;63.60;;;32.13;;
6007;SDS011;3032;49.484;11.112;2022-10-13T04:52:50;56.70;;;30.17;;
6007;SDS011;3032;49.484;11.112;2022-10-13T04:55:16;68.33;;;33.50;;
6007;SDS011;3032;49.484;11.112;2022-10-13T04:57:42;72.17;;;35.70;;
6007;SDS011;3032;49.484;11.112;2022-10-13T05:00:08;62.00;;;32.40;;
6007;SDS011;3032;49.484;11.112;2022-10-13T05:02:34;54.88;;;29.98;;
6007;SDS011;3032;49.484;11.112;2022-10-13T05:05:00;56.35;;;30.35;;
6007;SDS011;3032;49.484;11.112;2022-10-13T05:07:26;62.60;;;32.23;;
6007;SDS011;3032;49.484;11.112;2022-10-13T05:09:52;58.10;;;30.53;;
6007;SDS011;3032;49.484;11.112;2022-10-13T05:12:17;63.63;;;31.60;;
6007;SDS011;3032;49.484;11.112;2022-10-13T05:14:43;67.40;;;31.43;;
6007;SDS011;3032;49.484;11.112;2022-10-13T05:17:08;57.40;;;33.10;;
6007;SDS011;3032;49.484;11.112;2022-10-13T05:19:34;55.57;;;30.60;;
6007;SDS011;3032;49.484;11.112;2022-10-13T05:21:59;76.93;;;36.80;;
6007;SDS011;3032;49.484;11.112;2022-10-13T05:24:27;82.27;;;36.83;;
6007;SDS011;3032;49.484;11.112;2022-10-13T05:27:18;78.15;;;36.60;;
6007;SDS011;3032;49.484;11.112;2022-10-13T05:29:44;73.40;;;38.00;;
6007;SDS011;3032;49.484;11.112;2022-10-13T05:32:09;75.73;;;37.43;;
6007;SDS011;3032;49.484;11.112;2022-10-13T05:34:35;70.67;;;34.80;;
6007;SDS011;3032;49.484;11.112;2022-10-13T05:37:00;64.70;;;35.37;;
6007;SDS011;3032;49.484;11.112;2022-10-13T05:39:26;73.50;;;37.63;;
6007;SDS011;3032;49.484;11.112;2022-10-13T05:41:52;72.70;;;36.50;;
6007;SDS011;3032;49.484;11.112;2022-10-13T05:44:17;65.83;;;35.13;;
6007;SDS011;3032;49.484;11.112;2022-10-13T05:46:43;72.63;;;34.93;;
6007;SDS011;3032;49.484;11.112;2022-10-13T05:49:09;66.07;;;33.53;;
6007;SDS011;3032;49.484;11.112;2022-10-13T05:51:54;75.53;;;35.53;;
6007;SDS011;3032;49.484;11.112;2022-10-13T05:54:27;72.40;;;37.22;;
6007;SDS011;3032;49.484;11.112;2022-10-13T05:57:11;57.67;;;32.88;;
6007;SDS011;3032;49.484;11.112;2022-10-13T05:59:42;65.28;;;32.80;;
6007;SDS011;3032;49.484;11.112;2022-10-13T06:02:14;58.78;;;31.88;;
6007;SDS011;3032;49.484;11.112;2022-10-13T06:04:44;68.32;;;33.50;;
6007;SDS011;3032;49.484;11.112;2022-10-13T06:07:13;62.72;;;33.33;;
6007;SDS011;3032;49.484;11.112;2022-10-13T06:09:38;62.03;;;32.80;;
6007;SDS011;3032;49.484;11.112;2022-10-13T06:12:05;73.50;;;36.72;;
6007;SDS011;3032;49.484;11.112;2022-10-13T06:14:32;70.28;;;34.13;;
6007;SDS011;3032;49.484;11.112;2022-10-13T06:16:57;70.53;;;34.60;;
6007;SDS011;3032;49.484;11.112;2022-10-13T06:19:23;66.37;;;33.20;;
6007;SDS011;3032;49.484;11.112;2022-10-13T06:21:49;73.57;;;35.00;;
6007;SDS011;3032;49.484;11.112;2022-10-13T06:24:14;62.33;;;31.37;;
6007;SDS011;3032;49.484;11.112;2022-10-13T06:26:40;66.03;;;34.30;;
6007;SDS011;3032;49.484;11.112;2022-10-13T06:29:06;67.00;;;32.07;;
6007;SDS011;3032;49.484;11.112;2022-10-13T06:31:31;75.53;;;36.10;;
6007;SDS011;3032;49.484;11.112;2022-10-13T06:33:57;70.30;;;35.90;;
6007;SDS011;3032;49.484;11.112;2022-10-13T06:36:23;69.18;;;34.25;;
6007;SDS011;3032;49.484;11.112;2022-10-13T06:38:49;58.93;;;30.30;;
6007;SDS011;3032;49.484;11.112;2022-10-13T06:41:14;54.90;;;31.63;;
6007;SDS011;3032;49.484;11.112;2022-10-13T06:43:40;54.83;;;31.20;;
6007;SDS011;3032;49.484;11.112;2022-10-13T06:46:06;68.40;;;32.67;;
6007;SDS011;3032;49.484;11.112;2022-10-13T06:48:32;67.20;;;33.73;;
6007;SDS011;3032;49.484;11.112;2022-10-13T06:51:01;61.83;;;29.87;;
6007;SDS011;3032;49.484;11.112;2022-10-13T06:53:27;57.28;;;28.20;;
6007;SDS011;3032;49.484;11.112;2022-10-13T06:55:59;58.53;;;28.90;;
6007;SDS011;3032;49.484;11.112;2022-10-13T06:58:26;63.33;;;30.90;;
6007;SDS011;3032;49.484;11.112;2022-10-13T07:00:52;69.40;;;30.83;;
6007;SDS011;3032;49.484;11.112;2022-10-13T07:03:18;51.33;;;27.38;;
6007;SDS011;3032;49.484;11.112;2022-10-13T07:05:44;57.05;;;28.90;;
6007;SDS011;3032;49.484;11.112;2022-10-13T07:08:10;56.20;;;27.83;;
6007;SDS011;3032;49.484;11.112;2022-10-13T07:10:39;48.50;;;27.03;;
6007;SDS011;3032;49.484;11.112;2022-10-13T07:13:05;49.30;;;27.30;;
6007;SDS011;3032;49.484;11.112;2022-10-13T07:15:30;51.73;;;25.60;;
6007;SDS011;3032;49.484;11.112;2022-10-13T07:17:56;54.63;;;26.90;;
6007;SDS011;3032;49.484;11.112;2022-10-13T07:20:22;50.33;;;26.93;;
6007;SDS011;3032;49.484;11.112;2022-10-13T07:22:48;58.83;;;26.75;;
6007;SDS011;3032;49.484;11.112;2022-10-13T07:25:16;45.97;;;25.80;;
6007;SDS011;3032;49.484;11.112;2022-10-13T07:27:42;47.40;;;25.03;;
6007;SDS011;3032;49.484;11.112;2022-10-13T07:30:08;48.43;;;26.77;;
6007;SDS011;3032;49.484;11.112;2022-10-13T07:32:34;44.83;;;23.67;;
6007;SDS011;3032;49.484;11.112;2022-10-13T07:35:00;36.67;;;22.08;;
6007;SDS011;3032;49.484;11.112;2022-10-13T07:37:26;38.67;;;21.52;;
6007;SDS011;3032;49.484;11.112;2022-10-13T07:39:51;38.60;;;23.23;;
6007;SDS011;3032;49.484;11.112;2022-10-13T07:42:17;41.80;;;23.27;;
6007;SDS011;3032;49.484;11.112;2022-10-13T07:44:43;41.50;;;21.87;;
6007;SDS011;3032;49.484;11.112;2022-10-13T07:47:08;41.80;;;22.67;;
6007;SDS011;3032;49.484;11.112;2022-10-13T07:49:34;40.03;;;21.35;;
6007;SDS011;3032;49.484;11.112;2022-10-13T07:52:00;37.07;;;22.90;;
6007;SDS011;3032;49.484;11.112;2022-10-13T07:54:26;39.77;;;22.90;;
6007;SDS011;3032;49.484;11.112;2022-10-13T07:56:52;39.20;;;22.10;;
6007;SDS011;3032;49.484;11.112;2022-10-13T07:59:18;33.78;;;22.15;;
6007;SDS011;3032;49.484;11.112;2022-10-13T08:01:44;37.67;;;22.23;;
6007;SDS011;3032;49.484;11.112;2022-10-13T08:04:09;37.77;;;22.30;;
6007;SDS011;3032;49.484;11.112;2022-10-13T08:06:35;39.93;;;24.27;;
6007;SDS011;3032;49.484;11.112;2022-10-13T08:09:01;34.10;;;21.30;;
6007;SDS011;3032;49.484;11.112;2022-10-13T08:11:27;34.42;;;20.90;;
6007;SDS011;3032;49.484;11.112;2022-10-13T08:13:53;37.40;;;21.67;;
6007;SDS011;3032;49.484;11.112;2022-10-13T08:16:20;37.42;;;20.88;;
6007;SDS011;3032;49.484;11.112;2022-10-13T08:18:46;34.08;;;21.80;;
6007;SDS011;3032;49.484;11.112;2022-10-13T08:21:13;33.22;;;20.15;;
6007;SDS011;3032;49.484;11.112;2022-10-13T08:23:41;34.85;;;21.45;;
6007;SDS011;3032;49.484;11.112;2022-10-13T08:26:12;32.35;;;20.23;;
6007;SDS011;3032;49.484;11.112;2022-10-13T08:28:43;34.10;;;20.42;;
6007;SDS011;3032;49.484;11.112;2022-10-13T08:31:09;30.63;;;20.37;;
6007;SDS011;3032;49.484;11.112;2022-10-13T08:33:35;32.73;;;20.30;;
6007;SDS011;3032;49.484;11.112;2022-10-13T08:36:00;31.43;;;19.00;;
6007;SDS011;3032;49.484;11.112;2022-10-13T08:38:26;31.17;;;19.60;;
6007;SDS011;3032;49.484;11.112;2022-10-13T08:40:52;33.00;;;19.63;;
6007;SDS011;3032;49.484;11.112;2022-10-13T08:43:18;32.30;;;20.70;;
6007;SDS011;3032;49.484;11.112;2022-10-13T08:45:47;27.95;;;18.60;;
6007;SDS011;3032;49.484;11.112;2022-10-13T08:48:29;28.80;;;19.20;;
6007;SDS011;3032;49.484;11.112;2022-10-13T08:51:01;33.53;;;21.02;;
6007;SDS011;3032;49.484;11.112;2022-10-13T08:56:00;27.05;;;19.30;;
6007;SDS011;3032;49.484;11.112;2022-10-13T08:58:45;29.13;;;20.08;;
6007;SDS011;3032;49.484;11.112;2022-10-13T09:01:14;25.20;;;18.35;;
6007;SDS011;3032;49.484;11.112;2022-10-13T09:06:32;26.55;;;18.98;;
6007;SDS011;3032;49.484;11.112;2022-10-13T09:09:09;26.42;;;18.15;;
6007;SDS011;3032;49.484;11.112;2022-10-13T09:11:39;23.48;;;17.40;;
6007;SDS011;3032;49.484;11.112;2022-10-13T09:14:26;23.63;;;16.88;;
6007;SDS011;3032;49.484;11.112;2022-10-13T09:16:52;24.10;;;18.42;;
6007;SDS011;3032;49.484;11.112;2022-10-13T09:21:45;29.63;;;18.80;;
6007;SDS011;3032;49.484;11.112;2022-10-13T09:24:15;24.30;;;17.00;;
6007;SDS011;3032;49.484;11.112;2022-10-13T09:26:44;23.67;;;17.88;;
6007;SDS011;3032;49.484;11.112;2022-10-13T09:29:16;22.25;;;16.13;;
6007;SDS011;3032;49.484;11.112;2022-10-13T09:31:49;26.00;;;18.30;;
6007;SDS011;3032;49.484;11.112;2022-10-13T09:36:56;24.37;;;17.17;;
6007;SDS011;3032;49.484;11.112;2022-10-13T09:39:24;27.08;;;18.13;;
6007;SDS011;3032;49.484;11.112;2022-10-13T09:41:50;31.20;;;18.40;;
6007;SDS011;3032;49.484;11.112;2022-10-13T09:44:32;24.30;;;17.58;;
6007;SDS011;3032;49.484;11.112;2022-10-13T09:46:58;26.00;;;18.00;;
6007;SDS011;3032;49.484;11.112;2022-10-13T09:49:33;25.08;;;16.45;;
6007;SDS011;3032;49.484;11.112;2022-10-13T09:57:06;23.15;;;17.15;;
6007;SDS011;3032;49.484;11.112;2022-10-13T10:00:04;25.85;;;18.20;;
6007;SDS011;3032;49.484;11.112;2022-10-13T10:08:13;26.08;;;18.35;;
6007;SDS011;3032;49.484;11.112;2022-10-13T10:10:59;24.27;;;17.42;;
6007;SDS011;3032;49.484;11.112;2022-10-13T10:13:27;22.20;;;17.27;;
6007;SDS011;3032;49.484;11.112;2022-10-13T10:23:55;25.05;;;18.75;;
6007;SDS011;3032;49.484;11.112;2022-10-13T10:26:47;29.80;;;19.02;;
6007;SDS011;3032;49.484;11.112;2022-10-13T10:29:18;25.83;;;17.95;;
6007;SDS011;3032;49.484;11.112;2022-10-13T10:31:52;26.63;;;17.33;;
6007;SDS011;3032;49.484;11.112;2022-10-13T10:34:35;26.02;;;17.00;;
6007;SDS011;3032;49.484;11.112;2022-10-13T10:42:50;25.95;;;17.20;;
6007;SDS011;3032;49.484;11.112;2022-10-13T10:45:38;29.98;;;18.63;;
6007;SDS011;3032;49.484;11.112;2022-10-13T10:48:27;26.70;;;19.10;;
6007;SDS011;3032;49.484;11.112;2022-10-13T10:51:01;29.73;;;19.80;;
6007;SDS011;3032;49.484;11.112;2022-10-13T10:53:44;32.47;;;18.17;;
6007;SDS011;3032;49.484;11.112;2022-10-13T10:56:31;26.70;;;18.27;;
6007;SDS011;3032;49.484;11.112;2022-10-13T11:04:54;24.30;;;17.20;;
6007;SDS011;3032;49.484;11.112;2022-10-13T11:14:45;19.83;;;15.25;;
6007;SDS011;3032;49.484;11.112;2022-10-13T11:17:26;23.60;;;15.55;;
6007;SDS011;3032;49.484;11.112;2022-10-13T11:19:56;26.73;;;15.73;;
6007;SDS011;3032;49.484;11.112;2022-10-13T11:22:27;21.00;;;16.33;;
6007;SDS011;3032;49.484;11.112;2022-10-13T11:24:55;25.17;;;15.07;;
6007;SDS011;3032;49.484;11.112;2022-10-13T11:27:40;23.95;;;15.57;;
6007;SDS011;3032;49.484;11.112;2022-10-13T11:50:32;18.52;;;13.50;;
6007;SDS011;3032;49.484;11.112;2022-10-13T11:55:49;23.95;;;14.43;;
6007;SDS011;3032;49.484;11.112;2022-10-13T11:58:23;20.38;;;14.55;;
6007;SDS011;3032;49.484;11.112;2022-10-13T12:03:25;27.08;;;15.82;;
6007;SDS011;3032;49.484;11.112;2022-10-13T12:06:29;24.10;;;13.95;;
6007;SDS011;3032;49.484;11.112;2022-10-13T12:08:59;24.15;;;14.02;;
6007;SDS011;3032;49.484;11.112;2022-10-13T12:11:28;25.08;;;14.60;;
6007;SDS011;3032;49.484;11.112;2022-10-13T12:13:56;18.85;;;14.65;;
6007;SDS011;3032;49.484;11.112;2022-10-13T12:16:23;28.02;;;14.98;;
6007;SDS011;3032;49.484;11.112;2022-10-13T12:18:49;25.43;;;14.40;;
6007;SDS011;3032;49.484;11.112;2022-10-13T12:21:16;23.77;;;15.10;;
6007;SDS011;3032;49.484;11.112;2022-10-13T12:23:45;23.13;;;14.57;;
6007;SDS011;3032;49.484;11.112;2022-10-13T12:26:13;23.02;;;14.48;;
6007;SDS011;3032;49.484;11.112;2022-10-13T12:28:51;22.08;;;15.52;;
6007;SDS011;3032;49.484;11.112;2022-10-13T12:31:25;24.40;;;14.40;;
6007;SDS011;3032;49.484;11.112;2022-10-13T12:33:57;24.00;;;15.35;;
6007;SDS011;3032;49.484;11.112;2022-10-13T12:36:31;20.92;;;14.40;;
6007;SDS011;3032;49.484;11.112;2022-10-13T12:39:02;20.40;;;14.50;;
6007;SDS011;3032;49.484;11.112;2022-10-13T12:41:31;23.13;;;16.02;;
6007;SDS011;3032;49.484;11.112;2022-10-13T12:44:01;21.02;;;14.20;;
6007;SDS011;3032;49.484;11.112;2022-10-13T12:46:38;23.00;;;14.98;;
6007;SDS011;3032;49.484;11.112;2022-10-13T12:49:11;23.25;;;15.15;;
6007;SDS011;3032;49.484;11.112;2022-10-13T12:51:39;22.38;;;15.35;;
6007;SDS011;3032;49.484;11.112;2022-10-13T12:54:07;28.45;;;14.45;;
6007;SDS011;3032;49.484;11.112;2022-10-13T12:56:42;24.02;;;16.38;;
6007;SDS011;3032;49.484;11.112;2022-10-13T12:59:12;23.57;;;15.30;;
6007;SDS011;3032;49.484;11.112;2022-10-13T13:01:40;24.35;;;14.57;;
6007;SDS011;3032;49.484;11.112;2022-10-13T13:06:51;27.20;;;14.15;;
6007;SDS011;3032;49.484;11.112;2022-10-13T13:11:46;23.10;;;15.10;;
6007;SDS011;3032;49.484;11.112;2022-10-13T13:19:45;23.13;;;15.07;;
6007;SDS011;3032;49.484;11.112;2022-10-13T13:22:12;22.23;;;15.60;;
6007;SDS011;3032;49.484;11.112;2022-10-13T13:24:38;25.42;;;14.07;;
6007;SDS011;3032;49.484;11.112;2022-10-13T13:29:42;20.13;;;15.35;;
6007;SDS011;3032;49.484;11.112;2022-10-13T13:32:15;20.65;;;14.90;;
6007;SDS011;3032;49.484;11.112;2022-10-13T13:34:42;23.83;;;15.48;;
6007;SDS011;3032;49.484;11.112;2022-10-13T13:37:10;24.27;;;15.90;;
6007;SDS011;3032;49.484;11.112;2022-10-13T13:39:46;21.73;;;15.65;;
6007;SDS011;3032;49.484;11.112;2022-10-13T13:42:12;23.97;;;16.60;;
6007;SDS011;3032;49.484;11.112;2022-10-13T13:44:39;23.40;;;14.90;;
6007;SDS011;3032;49.484;11.112;2022-10-13T13:47:07;22.57;;;15.40;;
6007;SDS011;3032;49.484;11.112;2022-10-13T13:49:55;26.35;;;14.38;;
6007;SDS011;3032;49.484;11.112;2022-10-13T13:52:22;23.63;;;13.63;;
6007;SDS011;3032;49.484;11.112;2022-10-13T13:54:48;19.75;;;13.57;;
6007;SDS011;3032;49.484;11.112;2022-10-13T13:57:17;23.35;;;14.85;;
6007;SDS011;3032;49.484;11.112;2022-10-13T13:59:43;16.38;;;12.80;;
6007;SDS011;3032;49.484;11.112;2022-10-13T14:02:11;29.13;;;15.87;;
6007;SDS011;3032;49.484;11.112;2022-10-13T14:04:38;23.33;;;15.30;;
6007;SDS011;3032;49.484;11.112;2022-10-13T14:07:04;28.30;;;14.37;;
6007;SDS011;3032;49.484;11.112;2022-10-13T14:09:30;17.30;;;12.60;;
6007;SDS011;3032;49.484;11.112;2022-10-13T14:11:55;19.80;;;13.80;;
6007;SDS011;3032;49.484;11.112;2022-10-13T14:14:21;18.57;;;13.50;;
6007;SDS011;3032;49.484;11.112;2022-10-13T14:16:46;23.00;;;13.63;;
6007;SDS011;3032;49.484;11.112;2022-10-13T14:19:12;23.07;;;15.50;;
6007;SDS011;3032;49.484;11.112;2022-10-13T14:21:38;22.70;;;14.23;;
6007;SDS011;3032;49.484;11.112;2022-10-13T14:24:03;21.87;;;14.10;;
6007;SDS011;3032;49.484;11.112;2022-10-13T14:26:29;22.02;;;14.48;;
6007;SDS011;3032;49.484;11.112;2022-10-13T14:28:55;24.53;;;15.60;;
6007;SDS011;3032;49.484;11.112;2022-10-13T14:31:22;25.13;;;15.45;;
6007;SDS011;3032;49.484;11.112;2022-10-13T14:33:47;26.63;;;15.53;;
6007;SDS011;3032;49.484;11.112;2022-10-13T14:36:13;26.13;;;15.77;;
6007;SDS011;3032;49.484;11.112;2022-10-13T14:38:38;24.07;;;14.83;;
6007;SDS011;3032;49.484;11.112;2022-10-13T14:41:04;21.10;;;13.93;;
6007;SDS011;3032;49.484;11.112;2022-10-13T14:43:31;26.48;;;13.57;;
6007;SDS011;3032;49.484;11.112;2022-10-13T14:46:03;17.57;;;13.10;;
6007;SDS011;3032;49.484;11.112;2022-10-13T14:48:33;21.33;;;13.05;;
6007;SDS011;3032;49.484;11.112;2022-10-13T14:51:07;21.88;;;14.00;;
6007;SDS011;3032;49.484;11.112;2022-10-13T14:53:35;23.55;;;14.00;;
6007;SDS011;3032;49.484;11.112;2022-10-13T14:56:03;23.10;;;13.98;;
6007;SDS011;3032;49.484;11.112;2022-10-13T14:58:46;20.80;;;13.20;;
6007;SDS011;3032;49.484;11.112;2022-10-13T15:01:12;24.05;;;13.55;;
6007;SDS011;3032;49.484;11.112;2022-10-13T15:03:38;24.85;;;14.77;;
6007;SDS011;3032;49.484;11.112;2022-10-13T15:06:04;35.33;;;13.93;;
6007;SDS011;3032;49.484;11.112;2022-10-13T15:08:30;15.73;;;12.90;;
6007;SDS011;3032;49.484;11.112;2022-10-13T15:10:57;20.27;;;13.30;;
6007;SDS011;3032;49.484;11.112;2022-10-13T15:13:23;23.45;;;12.73;;
6007;SDS011;3032;49.484;11.112;2022-10-13T15:15:49;25.20;;;12.83;;
6007;SDS011;3032;49.484;11.112;2022-10-13T15:18:14;18.47;;;13.03;;
6007;SDS011;3032;49.484;11.112;2022-10-13T15:20:43;21.27;;;13.70;;
6007;SDS011;3032;49.484;11.112;2022-10-13T15:23:12;20.85;;;14.00;;
6007;SDS011;3032;49.484;11.112;2022-10-13T15:25:38;20.20;;;13.45;;
6007;SDS011;3032;49.484;11.112;2022-10-13T15:28:05;21.65;;;12.77;;
6007;SDS011;3032;49.484;11.112;2022-10-13T15:30:34;27.63;;;12.70;;
6007;SDS011;3032;49.484;11.112;2022-10-13T15:32:59;19.30;;;12.10;;
6007;SDS011;3032;49.484;11.112;2022-10-13T15:35:28;19.07;;;12.83;;
6007;SDS011;3032;49.484;11.112;2022-10-13T15:37:55;14.77;;;12.25;;
6007;SDS011;3032;49.484;11.112;2022-10-13T15:40:20;20.47;;;12.93;;
6007;SDS011;3032;49.484;11.112;2022-10-13T15:42:46;22.60;;;11.50;;
6007;SDS011;3032;49.484;11.112;2022-10-13T15:45:11;17.90;;;11.30;;
6007;SDS011;3032;49.484;11.112;2022-10-13T15:47:38;18.27;;;13.05;;
6007;SDS011;3032;49.484;11.112;2022-10-13T15:50:04;23.50;;;12.50;;
6007;SDS011;3032;49.484;11.112;2022-10-13T15:52:30;19.20;;;12.27;;
6007;SDS011;3032;49.484;11.112;2022-10-13T15:54:55;23.47;;;12.33;;
6007;SDS011;3032;49.484;11.112;2022-10-13T15:57:21;17.20;;;13.17;;
6007;SDS011;3032;49.484;11.112;2022-10-13T15:59:47;21.73;;;14.10;;
6007;SDS011;3032;49.484;11.112;2022-10-13T16:02:12;19.37;;;14.30;;
6007;SDS011;3032;49.484;11.112;2022-10-13T16:04:38;17.17;;;12.30;;
6007;SDS011;3032;49.484;11.112;2022-10-13T16:07:03;22.67;;;13.50;;
6007;SDS011;3032;49.484;11.112;2022-10-13T16:09:30;19.23;;;13.73;;
6007;SDS011;3032;49.484;11.112;2022-10-13T16:11:55;18.88;;;12.30;;
6007;SDS011;3032;49.484;11.112;2022-10-13T16:14:21;19.70;;;13.20;;
6007;SDS011;3032;49.484;11.112;2022-10-13T16:16:46;19.53;;;13.07;;
6007;SDS011;3032;49.484;11.112;2022-10-13T16:19:12;23.27;;;14.13;;
6007;SDS011;3032;49.484;11.112;2022-10-13T16:21:37;20.30;;;13.83;;
6007;SDS011;3032;49.484;11.112;2022-10-13T16:24:04;22.95;;;12.85;;
6007;SDS011;3032;49.484;11.112;2022-10-13T16:26:29;21.15;;;13.38;;
6007;SDS011;3032;49.484;11.112;2022-10-13T16:28:55;21.10;;;14.80;;
6007;SDS011;3032;49.484;11.112;2022-10-13T16:31:21;27.90;;;14.93;;
6007;SDS011;3032;49.484;11.112;2022-10-13T16:33:47;21.38;;;15.13;;
6007;SDS011;3032;49.484;11.112;2022-10-13T16:36:14;23.43;;;14.93;;